createdAt,value
2018-06-09T00:00:15.649Z,21.16
2018-06-09T00:01:26.775Z,21.23
2018-06-09T00:02:36.962Z,21.16
2018-06-09T00:03:47.250Z,21.2
2018-06-09T00:04:57.422Z,21.23
2018-06-09T00:06:07.577Z,21.28
2018-06-09T00:07:17.845Z,21.15
2018-06-09T00:08:27.999Z,21.18
2018-06-09T00:09:38.197Z,21.08
2018-06-09T00:10:48.442Z,21.1
2018-06-09T00:11:58.676Z,21.06
2018-06-09T00:13:08.919Z,21.03
2018-06-09T00:14:19.137Z,21.04
2018-06-09T00:15:29.075Z,21.06
2018-06-09T00:16:39.281Z,21.03
2018-06-09T00:17:49.428Z,20.98
2018-06-09T00:18:59.331Z,20.97
2018-06-09T00:20:09.494Z,20.97
2018-06-09T00:21:19.628Z,21.01
2018-06-09T00:22:29.810Z,20.85
2018-06-09T00:23:40.038Z,20.81
2018-06-09T00:24:50.189Z,20.82
2018-06-09T00:26:00.401Z,20.83
2018-06-09T00:27:10.605Z,20.83
2018-06-09T00:28:20.860Z,20.78
2018-06-09T00:29:31.074Z,20.73
2018-06-09T00:30:41.264Z,20.73
2018-06-09T00:31:51.430Z,20.72
2018-06-09T00:33:01.696Z,20.67
2018-06-09T00:34:11.920Z,20.61
2018-06-09T00:35:22.206Z,20.58
2018-06-09T00:36:33.352Z,20.58
2018-06-09T00:37:43.656Z,20.56
2018-06-09T00:38:53.816Z,20.56
2018-06-09T00:40:03.745Z,20.51
2018-06-09T00:41:13.917Z,20.53
2018-06-09T00:42:24.068Z,20.54
2018-06-09T00:43:34.208Z,20.49
2018-06-09T00:44:44.368Z,20.46
2018-06-09T00:45:54.551Z,20.43
2018-06-09T00:47:04.693Z,20.49
2018-06-09T00:48:14.820Z,20.41
2018-06-09T00:49:24.964Z,20.43
2018-06-09T00:50:34.915Z,20.39
2018-06-09T00:51:45.091Z,20.36
2018-06-09T00:52:55.234Z,20.31
2018-06-09T00:54:05.413Z,20.39
2018-06-09T00:55:15.300Z,20.31
2018-06-09T00:56:25.521Z,20.34
2018-06-09T00:57:35.473Z,20.21
2018-06-09T00:58:45.608Z,20.2
2018-06-09T00:59:55.812Z,20.17
2018-06-09T01:01:06.038Z,20.21
2018-06-09T01:02:16.262Z,20.12
2018-06-09T01:03:26.450Z,20.11
2018-06-09T01:04:36.623Z,20.08
2018-06-09T01:05:46.813Z,20.01
2018-06-09T01:06:57.113Z,20.01
2018-06-09T01:08:07.402Z,20.03
2018-06-09T01:09:17.582Z,20.01
2018-06-09T01:10:27.760Z,20.01
2018-06-09T01:11:38.011Z,19.93
2018-06-09T01:12:47.897Z,19.97
2018-06-09T01:13:57.999Z,19.92
2018-06-09T01:15:08.202Z,19.92
2018-06-09T01:16:18.433Z,19.85
2018-06-09T01:17:28.639Z,19.8
2018-06-09T01:18:38.818Z,19.88
2018-06-09T01:19:48.962Z,19.79
2018-06-09T01:20:59.123Z,19.82
2018-06-09T01:22:09.288Z,19.79
2018-06-09T01:23:19.172Z,19.83
2018-06-09T01:24:29.341Z,19.79
2018-06-09T01:25:39.513Z,19.83
2018-06-09T01:26:49.643Z,19.8
2018-06-09T01:27:59.807Z,19.74
2018-06-09T01:29:09.936Z,19.67
2018-06-09T01:30:20.106Z,19.71
2018-06-09T01:31:29.983Z,19.6
2018-06-09T01:32:39.853Z,19.58
2018-06-09T01:33:50.007Z,19.61
2018-06-09T01:35:00.188Z,19.61
2018-06-09T01:36:10.390Z,19.61
2018-06-09T01:37:20.596Z,19.71
2018-06-09T01:38:30.704Z,19.71
2018-06-09T01:39:40.866Z,19.71
2018-06-09T01:40:51.033Z,19.7
2018-06-09T01:42:01.186Z,19.58
2018-06-09T01:43:11.062Z,19.67
2018-06-09T01:44:21.375Z,19.56
2018-06-09T01:45:31.542Z,19.6
2018-06-09T01:46:41.854Z,19.63
2018-06-09T01:47:52.017Z,19.48
2018-06-09T01:49:02.211Z,19.48
2018-06-09T01:50:12.409Z,19.58
2018-06-09T01:51:22.616Z,19.49
2018-06-09T01:52:32.760Z,19.53
2018-06-09T01:53:42.889Z,19.53
2018-06-09T01:54:53.018Z,19.5
2018-06-09T01:56:03.192Z,19.56
2018-06-09T01:57:13.068Z,19.6
2018-06-09T01:58:23.233Z,19.58
2018-06-09T01:59:33.383Z,19.53
2018-06-09T02:00:43.549Z,19.53
2018-06-09T02:01:53.749Z,19.49
2018-06-09T02:03:03.646Z,19.58
2018-06-09T02:04:13.777Z,19.53
2018-06-09T02:05:24.420Z,19.56
2018-06-09T02:06:34.561Z,19.52
2018-06-09T02:07:44.840Z,19.58
2018-06-09T02:08:55.079Z,19.53
2018-06-09T02:10:05.293Z,19.46
2018-06-09T02:11:15.498Z,19.49
2018-06-09T02:12:25.647Z,19.48
2018-06-09T02:13:35.863Z,19.53
2018-06-09T02:14:46.019Z,19.48
2018-06-09T02:15:56.202Z,19.43
2018-06-09T02:17:06.086Z,19.45
2018-06-09T02:18:16.276Z,19.46
2018-06-09T02:19:26.480Z,19.39
2018-06-09T02:20:36.679Z,19.37
2018-06-09T02:21:46.886Z,19.37
2018-06-09T02:22:57.101Z,19.39
2018-06-09T02:24:06.979Z,19.3
2018-06-09T02:25:17.128Z,19.28
2018-06-09T02:26:26.938Z,19.27
2018-06-09T02:27:37.077Z,19.28
2018-06-09T02:28:47.202Z,19.35
2018-06-09T02:29:57.337Z,19.25
2018-06-09T02:31:07.475Z,19.25
2018-06-09T02:32:17.701Z,19.13
2018-06-09T02:33:27.846Z,19.16
2018-06-09T02:34:38.084Z,19.13
2018-06-09T02:35:48.284Z,19.15
2018-06-09T02:36:58.446Z,19.09
2018-06-09T02:38:08.594Z,19.12
2018-06-09T02:39:18.839Z,19.19
2018-06-09T02:40:29.277Z,19.16
2018-06-09T02:41:39.417Z,19.12
2018-06-09T02:42:49.586Z,19.1
2018-06-09T02:43:59.755Z,19
2018-06-09T02:45:09.682Z,19.03
2018-06-09T02:46:19.813Z,18.98
2018-06-09T02:47:29.952Z,19.1
2018-06-09T02:48:40.112Z,19.09
2018-06-09T02:49:50.297Z,19.02
2018-06-09T02:51:00.554Z,19.06
2018-06-09T02:52:10.731Z,19.06
2018-06-09T02:53:20.884Z,19.12
2018-06-09T02:54:31.034Z,19.21
2018-06-09T02:55:41.190Z,19.19
2018-06-09T02:56:51.366Z,19.13
2018-06-09T02:58:01.513Z,19.19
2018-06-09T02:59:11.703Z,19.18
2018-06-09T03:00:21.977Z,19.18
2018-06-09T03:01:32.235Z,19.25
2018-06-09T03:02:42.410Z,19.23
2018-06-09T03:03:52.605Z,19.31
2018-06-09T03:05:02.478Z,19.28
2018-06-09T03:06:12.607Z,19.31
2018-06-09T03:07:22.784Z,19.23
2018-06-09T03:08:32.907Z,19.24
2018-06-09T03:09:43.102Z,19.21
2018-06-09T03:10:53.271Z,19.15
2018-06-09T03:12:03.401Z,19.1
2018-06-09T03:13:13.569Z,19.12
2018-06-09T03:14:23.691Z,19.16
2018-06-09T03:15:33.862Z,19.19
2018-06-09T03:16:44.099Z,19.15
2018-06-09T03:17:54.281Z,19.12
2018-06-09T03:19:04.460Z,19.19
2018-06-09T03:20:15.565Z,19.12
2018-06-09T03:21:25.798Z,19.05
2018-06-09T03:22:36.048Z,19.03
2018-06-09T03:23:46.271Z,18.98
2018-06-09T03:24:56.436Z,19
2018-06-09T03:26:06.326Z,18.98
2018-06-09T03:27:16.475Z,19
2018-06-09T03:28:26.694Z,18.93
2018-06-09T03:29:36.886Z,18.97
2018-06-09T03:30:47.029Z,19
2018-06-09T03:31:57.269Z,19
2018-06-09T03:33:07.406Z,19
2018-06-09T03:34:17.527Z,19.06
2018-06-09T03:35:27.668Z,19.08
2018-06-09T03:36:37.537Z,19.05
2018-06-09T03:37:47.668Z,19.02
2018-06-09T03:38:57.809Z,19.09
2018-06-09T03:40:08.004Z,19.05
2018-06-09T03:41:18.174Z,18.97
2018-06-09T03:42:28.363Z,18.94
2018-06-09T03:43:38.524Z,18.94
2018-06-09T03:44:48.766Z,19
2018-06-09T03:45:58.656Z,18.94
2018-06-09T03:47:08.796Z,18.98
2018-06-09T03:48:19.061Z,18.94
2018-06-09T03:49:29.352Z,18.93
2018-06-09T03:50:39.632Z,18.94
2018-06-09T03:51:49.777Z,19
2018-06-09T03:52:59.956Z,18.97
2018-06-09T03:54:10.135Z,18.98
2018-06-09T03:55:20.417Z,18.95
2018-06-09T03:56:30.628Z,18.97
2018-06-09T03:57:40.395Z,19
2018-06-09T03:58:50.613Z,18.98
2018-06-09T04:00:00.382Z,18.98
2018-06-09T04:01:10.565Z,18.97
2018-06-09T04:02:20.733Z,18.95
2018-06-09T04:03:30.881Z,18.93
2018-06-09T04:04:41.153Z,18.95
2018-06-09T04:05:51.330Z,18.95
2018-06-09T04:07:01.740Z,18.98
2018-06-09T04:08:11.910Z,18.98
2018-06-09T04:09:22.044Z,18.97
2018-06-09T04:10:32.273Z,19.02
2018-06-09T04:11:42.159Z,18.98
2018-06-09T04:12:52.304Z,18.98
2018-06-09T04:14:02.186Z,18.94
2018-06-09T04:15:12.338Z,18.93
2018-06-09T04:16:22.532Z,18.94
2018-06-09T04:17:32.718Z,18.98
2018-06-09T04:18:42.896Z,18.98
2018-06-09T04:19:53.042Z,18.95
2018-06-09T04:21:03.182Z,18.95
2018-06-09T04:22:13.561Z,18.95
2018-06-09T04:23:23.427Z,18.94
2018-06-09T04:24:33.196Z,18.86
2018-06-09T04:25:42.972Z,18.93
2018-06-09T04:26:53.100Z,18.9
2018-06-09T04:28:03.265Z,18.97
2018-06-09T04:29:13.465Z,18.91
2018-06-09T04:30:23.615Z,18.91
2018-06-09T04:31:33.519Z,18.88
2018-06-09T04:32:43.656Z,18.91
2018-06-09T04:33:53.870Z,18.9
2018-06-09T04:35:04.184Z,18.93
2018-06-09T04:36:14.386Z,18.87
2018-06-09T04:37:24.320Z,18.9
2018-06-09T04:38:34.453Z,18.91
2018-06-09T04:39:44.580Z,18.93
2018-06-09T04:40:54.897Z,18.87
2018-06-09T04:42:04.835Z,18.87
2018-06-09T04:43:14.988Z,18.78
2018-06-09T04:44:25.293Z,18.73
2018-06-09T04:45:35.483Z,18.73
2018-06-09T04:46:45.613Z,18.73
2018-06-09T04:47:55.815Z,18.75
2018-06-09T04:49:05.994Z,18.69
2018-06-09T04:50:16.142Z,18.75
2018-06-09T04:51:26.272Z,18.67
2018-06-09T04:52:36.424Z,18.69
2018-06-09T04:53:46.570Z,18.79
2018-06-09T04:54:56.797Z,18.8
2018-06-09T04:56:07.005Z,18.8
2018-06-09T04:57:16.916Z,18.86
2018-06-09T04:58:27.096Z,18.9
2018-06-09T04:59:36.956Z,18.91
2018-06-09T05:00:47.112Z,18.87
2018-06-09T05:01:57.275Z,18.84
2018-06-09T05:03:07.529Z,18.86
2018-06-09T05:04:17.672Z,18.86
2018-06-09T05:05:27.900Z,18.9
2018-06-09T05:06:38.072Z,18.95
2018-06-09T05:07:48.284Z,18.94
2018-06-09T05:08:58.481Z,18.97
2018-06-09T05:10:08.744Z,18.95
2018-06-09T05:11:18.974Z,19.02
2018-06-09T05:12:29.167Z,19.03
2018-06-09T05:13:39.393Z,19.06
2018-06-09T05:14:49.600Z,19.15
2018-06-09T05:15:59.843Z,19.12
2018-06-09T05:17:10.090Z,19.19
2018-06-09T05:18:20.414Z,19.12
2018-06-09T05:19:30.651Z,19.13
2018-06-09T05:20:40.807Z,19.18
2018-06-09T05:21:51.012Z,19.3
2018-06-09T05:23:01.175Z,19.28
2018-06-09T05:24:11.384Z,19.31
2018-06-09T05:25:21.278Z,19.39
2018-06-09T05:26:31.441Z,19.31
2018-06-09T05:27:41.597Z,19.34
2018-06-09T05:28:51.728Z,19.39
2018-06-09T05:30:01.857Z,19.42
2018-06-09T05:31:12.022Z,19.31
2018-06-09T05:32:22.168Z,19.4
2018-06-09T05:33:32.097Z,19.37
2018-06-09T05:34:41.987Z,19.46
2018-06-09T05:35:52.148Z,19.4
2018-06-09T05:37:03.288Z,19.4
2018-06-09T05:38:13.465Z,19.49
2018-06-09T05:39:23.624Z,19.46
2018-06-09T05:40:33.550Z,19.46
2018-06-09T05:41:43.832Z,19.42
2018-06-09T05:42:53.719Z,19.42
2018-06-09T05:44:03.898Z,19.4
2018-06-09T05:45:14.056Z,19.34
2018-06-09T05:46:24.200Z,19.49
2018-06-09T05:47:34.393Z,19.45
2018-06-09T05:48:44.615Z,19.45
2018-06-09T05:49:54.804Z,19.42
2018-06-09T05:51:05.001Z,19.46
2018-06-09T05:52:15.230Z,19.46
2018-06-09T05:53:25.509Z,19.39
2018-06-09T05:54:35.700Z,19.4
2018-06-09T05:55:45.911Z,19.39
2018-06-09T05:56:56.121Z,19.39
2018-06-09T05:58:06.402Z,19.33
2018-06-09T05:59:16.564Z,19.46
2018-06-09T06:00:26.533Z,19.43
2018-06-09T06:01:36.712Z,19.5
2018-06-09T06:02:46.879Z,19.5
2018-06-09T06:03:57.130Z,19.5
2018-06-09T06:05:07.488Z,19.45
2018-06-09T06:06:17.656Z,19.46
2018-06-09T06:07:27.808Z,19.46
2018-06-09T06:08:37.963Z,19.56
2018-06-09T06:09:48.117Z,19.58
2018-06-09T06:10:58.343Z,19.58
2018-06-09T06:12:08.570Z,19.43
2018-06-09T06:13:18.773Z,19.56
2018-06-09T06:14:28.984Z,19.53
2018-06-09T06:15:39.196Z,19.56
2018-06-09T06:16:49.432Z,19.49
2018-06-09T06:17:59.711Z,19.52
2018-06-09T06:19:09.998Z,19.53
2018-06-09T06:20:20.177Z,19.58
2018-06-09T06:21:30.334Z,19.52
2018-06-09T06:22:40.602Z,19.45
2018-06-09T06:23:50.504Z,19.5
2018-06-09T06:25:00.669Z,19.6
2018-06-09T06:26:10.879Z,19.5
2018-06-09T06:27:21.077Z,19.5
2018-06-09T06:28:31.237Z,19.53
2018-06-09T06:29:41.460Z,19.53
2018-06-09T06:30:51.645Z,19.56
2018-06-09T06:32:01.864Z,19.58
2018-06-09T06:33:12.019Z,19.56
2018-06-09T06:34:22.178Z,19.56
2018-06-09T06:35:32.362Z,19.55
2018-06-09T06:36:42.530Z,19.49
2018-06-09T06:37:52.672Z,19.53
2018-06-09T06:39:02.843Z,19.49
2018-06-09T06:40:13.028Z,19.52
2018-06-09T06:41:23.244Z,19.6
2018-06-09T06:42:33.409Z,19.53
2018-06-09T06:43:43.237Z,19.52
2018-06-09T06:44:53.386Z,19.6
2018-06-09T06:46:03.656Z,19.71
2018-06-09T06:47:13.592Z,19.71
2018-06-09T06:48:23.905Z,19.58
2018-06-09T06:49:34.048Z,19.58
2018-06-09T06:50:43.988Z,19.61
2018-06-09T06:51:54.172Z,19.61
2018-06-09T06:53:04.467Z,19.71
2018-06-09T06:54:14.662Z,19.64
2018-06-09T06:55:25.930Z,19.55
2018-06-09T06:56:37.185Z,19.6
2018-06-09T06:57:47.204Z,19.6
2018-06-09T06:58:57.449Z,19.56
2018-06-09T07:00:07.695Z,19.46
2018-06-09T07:01:17.981Z,19.46
2018-06-09T07:02:28.175Z,19.56
2018-06-09T07:03:38.423Z,19.53
2018-06-09T07:04:48.709Z,19.5
2018-06-09T07:05:58.651Z,19.46
2018-06-09T07:07:08.801Z,19.42
2018-06-09T07:08:18.950Z,19.37
2018-06-09T07:09:29.093Z,19.4
2018-06-09T07:10:39.272Z,19.45
2018-06-09T07:11:48.814Z,19.48
2018-06-09T07:12:58.996Z,19.58
2018-06-09T07:14:09.168Z,19.55
2018-06-09T07:15:19.341Z,19.65
2018-06-09T07:16:29.545Z,19.67
2018-06-09T07:17:39.700Z,19.63
2018-06-09T07:18:49.839Z,19.67
2018-06-09T07:20:00.013Z,19.53
2018-06-09T07:21:10.203Z,19.5
2018-06-09T07:22:20.433Z,19.53
2018-06-09T07:23:30.580Z,19.48
2018-06-09T07:24:40.471Z,19.56
2018-06-09T07:25:50.681Z,19.58
2018-06-09T07:27:00.859Z,19.56
2018-06-09T07:28:11.093Z,19.67
2018-06-09T07:29:21.320Z,19.65
2018-06-09T07:30:31.514Z,19.68
2018-06-09T07:31:41.710Z,19.71
2018-06-09T07:32:51.928Z,19.76
2018-06-09T07:34:02.162Z,19.74
2018-06-09T07:35:12.668Z,19.85
2018-06-09T07:36:22.978Z,19.85
2018-06-09T07:37:33.161Z,19.83
2018-06-09T07:38:43.320Z,19.8
2018-06-09T07:39:53.525Z,19.95
2018-06-09T07:41:03.743Z,19.88
2018-06-09T07:42:13.997Z,19.98
2018-06-09T07:43:24.154Z,20.03
2018-06-09T07:44:34.200Z,20.07
2018-06-09T07:45:44.448Z,20.08
2018-06-09T07:46:54.653Z,20.11
2018-06-09T07:48:04.879Z,20.21
2018-06-09T07:49:15.047Z,20.28
2018-06-09T07:50:25.272Z,20.2
2018-06-09T07:51:35.538Z,20.26
2018-06-09T07:52:45.751Z,20.23
2018-06-09T07:53:55.919Z,20.19
2018-06-09T07:55:06.125Z,20.28
2018-06-09T07:56:16.492Z,20.26
2018-06-09T07:57:26.395Z,20.36
2018-06-09T07:58:36.594Z,20.35
2018-06-09T07:59:46.856Z,20.51
2018-06-09T08:00:57.073Z,20.48
2018-06-09T08:02:07.295Z,20.45
2018-06-09T08:03:17.452Z,20.45
2018-06-09T08:04:27.645Z,20.48
2018-06-09T08:05:37.829Z,20.48
2018-06-09T08:06:48.035Z,20.48
2018-06-09T08:07:58.336Z,20.53
2018-06-09T08:09:08.525Z,20.53
2018-06-09T08:10:18.765Z,20.57
2018-06-09T08:11:28.931Z,20.53
2018-06-09T08:12:39.108Z,20.51
2018-06-09T08:13:49.296Z,20.48
2018-06-09T08:14:59.506Z,20.57
2018-06-09T08:16:09.693Z,20.53
2018-06-09T08:17:19.903Z,20.58
2018-06-09T08:18:30.113Z,20.51
2018-06-09T08:19:40.273Z,20.58
2018-06-09T08:20:50.450Z,20.63
2018-06-09T08:22:00.650Z,20.67
2018-06-09T08:23:10.857Z,20.66
2018-06-09T08:24:20.780Z,20.75
2018-06-09T08:25:30.984Z,20.68
2018-06-09T08:26:41.216Z,20.75
2018-06-09T08:27:51.485Z,20.72
2018-06-09T08:29:01.677Z,20.68
2018-06-09T08:30:12.078Z,20.64
2018-06-09T08:31:22.262Z,20.66
2018-06-09T08:32:32.486Z,20.79
2018-06-09T08:33:42.655Z,20.79
2018-06-09T08:34:52.826Z,20.82
2018-06-09T08:36:02.866Z,20.93
2018-06-09T08:37:13.296Z,20.85
2018-06-09T08:38:23.490Z,20.94
2018-06-09T08:39:33.748Z,21
2018-06-09T08:40:43.955Z,20.97
2018-06-09T08:41:54.216Z,20.98
2018-06-09T08:43:04.458Z,21.06
2018-06-09T08:44:14.638Z,21.06
2018-06-09T08:45:24.873Z,21.08
2018-06-09T08:46:35.089Z,21.06
2018-06-09T08:47:45.256Z,21.15
2018-06-09T08:48:55.434Z,21.15
2018-06-09T08:50:05.599Z,21.22
2018-06-09T08:51:15.400Z,21.27
2018-06-09T08:52:25.570Z,21.33
2018-06-09T08:53:35.737Z,21.31
2018-06-09T08:54:45.993Z,21.4
2018-06-09T08:55:56.176Z,21.41
2018-06-09T08:57:06.351Z,21.4
2018-06-09T08:58:16.555Z,21.41
2018-06-09T08:59:26.715Z,21.46
2018-06-09T09:00:37.953Z,21.57
2018-06-09T09:01:48.156Z,21.6
2018-06-09T09:02:58.333Z,21.43
2018-06-09T09:04:08.577Z,21.48
2018-06-09T09:05:18.759Z,21.45
2018-06-09T09:06:28.973Z,21.57
2018-06-09T09:07:39.171Z,21.56
2018-06-09T09:08:49.370Z,21.57
2018-06-09T09:09:59.553Z,21.58
2018-06-09T09:11:09.768Z,21.66
2018-06-09T09:12:19.936Z,21.73
2018-06-09T09:13:30.155Z,21.72
2018-06-09T09:14:40.391Z,21.81
2018-06-09T09:15:50.674Z,21.75
2018-06-09T09:17:00.871Z,21.78
2018-06-09T09:18:11.062Z,21.86
2018-06-09T09:19:21.265Z,21.84
2018-06-09T09:20:31.472Z,21.87
2018-06-09T09:21:41.683Z,21.87
2018-06-09T09:22:52.832Z,21.83
2018-06-09T09:24:03.139Z,21.86
2018-06-09T09:25:13.369Z,21.87
2018-06-09T09:26:23.624Z,21.87
2018-06-09T09:27:33.809Z,21.94
2018-06-09T09:28:43.985Z,21.96
2018-06-09T09:29:54.178Z,21.96
2018-06-09T09:31:04.407Z,21.98
2018-06-09T09:32:14.949Z,22.12
2018-06-09T09:33:25.216Z,22.16
2018-06-09T09:34:35.390Z,22.28
2018-06-09T09:35:45.612Z,22.28
2018-06-09T09:36:55.897Z,22.35
2018-06-09T09:38:06.195Z,22.42
2018-06-09T09:39:16.468Z,22.53
2018-06-09T09:40:26.686Z,22.61
2018-06-09T09:41:36.869Z,22.7
2018-06-09T09:42:47.092Z,22.83
2018-06-09T09:43:57.285Z,22.98
2018-06-09T09:45:07.506Z,23.06
2018-06-09T09:46:17.872Z,23.17
2018-06-09T09:47:28.175Z,23.35
2018-06-09T09:48:38.349Z,23.45
2018-06-09T09:49:48.545Z,23.48
2018-06-09T09:50:58.772Z,23.76
2018-06-09T09:52:08.966Z,24.01
2018-06-09T09:53:19.149Z,24.07
2018-06-09T09:54:29.390Z,24.24
2018-06-09T09:55:39.605Z,24.32
2018-06-09T09:56:49.776Z,24.58
2018-06-09T09:58:00.064Z,24.78
2018-06-09T09:59:10.273Z,25.09
2018-06-09T10:00:20.443Z,25.39
2018-06-09T10:01:30.384Z,25.69
2018-06-09T10:02:40.577Z,26.19
2018-06-09T10:03:50.593Z,26.46
2018-06-09T10:05:00.825Z,27.08
2018-06-09T10:06:11.089Z,27.57
2018-06-09T10:07:21.383Z,28.01
2018-06-09T10:08:31.577Z,28.34
2018-06-09T10:09:41.778Z,28.72
2018-06-09T10:10:51.992Z,29.06
2018-06-09T10:12:01.920Z,29.48
2018-06-09T10:13:12.092Z,29.73
2018-06-09T10:14:22.283Z,29.94
2018-06-09T10:15:32.533Z,30.3
2018-06-09T10:16:42.717Z,30.63
2018-06-09T10:17:52.944Z,30.76
2018-06-09T10:19:03.168Z,30.86
2018-06-09T10:20:13.376Z,31.09
2018-06-09T10:21:23.558Z,31.28
2018-06-09T10:22:33.810Z,31.37
2018-06-09T10:23:44.002Z,31.47
2018-06-09T10:24:54.211Z,31.55
2018-06-09T10:26:04.370Z,31.58
2018-06-09T10:27:14.593Z,31.72
2018-06-09T10:28:24.852Z,31.77
2018-06-09T10:29:35.059Z,31.91
2018-06-09T10:30:45.281Z,31.99
2018-06-09T10:31:55.553Z,32.21
2018-06-09T10:33:05.734Z,32.44
2018-06-09T10:34:15.943Z,32.46
2018-06-09T10:35:26.149Z,32.62
2018-06-09T10:36:36.392Z,32.7
2018-06-09T10:37:46.613Z,32.6
2018-06-09T10:38:56.889Z,32.63
2018-06-09T10:40:07.112Z,32.62
2018-06-09T10:41:17.298Z,32.65
2018-06-09T10:42:27.510Z,32.65
2018-06-09T10:43:37.709Z,32.68
2018-06-09T10:44:48.064Z,32.69
2018-06-09T10:45:58.225Z,32.78
2018-06-09T10:47:08.443Z,32.78
2018-06-09T10:48:18.640Z,32.73
2018-06-09T10:49:28.884Z,32.66
2018-06-09T10:50:39.124Z,32.59
2018-06-09T10:51:49.335Z,32.41
2018-06-09T10:52:59.550Z,32.28
2018-06-09T10:54:09.385Z,32.33
2018-06-09T10:55:19.591Z,32.21
2018-06-09T10:56:29.770Z,32.11
2018-06-09T10:57:40.059Z,32.04
2018-06-09T10:58:50.240Z,31.95
2018-06-09T11:00:00.425Z,31.91
2018-06-09T11:01:10.660Z,31.91
2018-06-09T11:02:20.850Z,31.79
2018-06-09T11:03:31.081Z,31.79
2018-06-09T11:04:41.288Z,31.85
2018-06-09T11:05:51.455Z,31.85
2018-06-09T11:07:01.661Z,32.07
2018-06-09T11:08:12.927Z,32.06
2018-06-09T11:09:23.105Z,32.24
2018-06-09T11:10:33.305Z,32.28
2018-06-09T11:11:43.583Z,32.38
2018-06-09T11:12:53.829Z,32.48
2018-06-09T11:14:04.022Z,32.51
2018-06-09T11:15:14.226Z,32.59
2018-06-09T11:16:24.396Z,32.53
2018-06-09T11:17:34.608Z,32.62
2018-06-09T11:18:44.853Z,32.69
2018-06-09T11:19:55.095Z,32.68
2018-06-09T11:21:05.349Z,32.58
2018-06-09T11:22:15.631Z,32.65
2018-06-09T11:23:25.877Z,32.69
2018-06-09T11:24:36.131Z,32.96
2018-06-09T11:25:46.313Z,33.03
2018-06-09T11:26:56.551Z,33.13
2018-06-09T11:28:06.737Z,33.15
2018-06-09T11:29:16.769Z,33.16
2018-06-09T11:30:27.080Z,33.26
2018-06-09T11:31:37.293Z,33.25
2018-06-09T11:32:47.522Z,33.27
2018-06-09T11:33:57.831Z,33.25
2018-06-09T11:35:08.056Z,33.31
2018-06-09T11:36:18.250Z,33.25
2018-06-09T11:37:28.481Z,33.26
2018-06-09T11:38:38.690Z,33.17
2018-06-09T11:39:48.876Z,33.17
2018-06-09T11:40:59.139Z,33.19
2018-06-09T11:42:09.395Z,33.22
2018-06-09T11:43:19.657Z,33.23
2018-06-09T11:44:29.880Z,33.26
2018-06-09T11:45:40.078Z,33.07
2018-06-09T11:46:50.299Z,32.97
2018-06-09T11:48:00.499Z,32.8
2018-06-09T11:49:10.687Z,32.89
2018-06-09T11:50:20.890Z,33.01
2018-06-09T11:51:31.067Z,33.13
2018-06-09T11:52:41.288Z,33.27
2018-06-09T11:53:52.527Z,33.41
2018-06-09T11:55:02.748Z,33.52
2018-06-09T11:56:13.010Z,33.44
2018-06-09T11:57:23.205Z,33.42
2018-06-09T11:58:33.492Z,33.38
2018-06-09T11:59:43.824Z,33.39
2018-06-09T12:00:54.040Z,33.38
2018-06-09T12:02:04.247Z,33.38
2018-06-09T12:03:14.456Z,33.44
2018-06-09T12:04:24.699Z,33.47
2018-06-09T12:05:35.073Z,33.47
2018-06-09T12:06:45.485Z,33.6
2018-06-09T12:07:55.690Z,33.47
2018-06-09T12:09:05.613Z,33.44
2018-06-09T12:10:15.818Z,33.5
2018-06-09T12:11:26.031Z,33.52
2018-06-09T12:12:36.283Z,33.64
2018-06-09T12:13:46.550Z,33.69
2018-06-09T12:14:56.771Z,33.71
2018-06-09T12:16:07.179Z,33.75
2018-06-09T12:17:17.579Z,33.79
2018-06-09T12:18:27.875Z,33.71
2018-06-09T12:19:38.049Z,33.64
2018-06-09T12:20:48.292Z,33.53
2018-06-09T12:21:58.525Z,33.45
2018-06-09T12:23:08.717Z,33.39
2018-06-09T12:24:18.949Z,33.26
2018-06-09T12:25:29.221Z,33.23
2018-06-09T12:26:39.434Z,33.2
2018-06-09T12:27:49.625Z,33.1
2018-06-09T12:28:59.841Z,32.96
2018-06-09T12:30:10.043Z,32.84
2018-06-09T12:31:20.047Z,32.65
2018-06-09T12:32:30.103Z,32.73
2018-06-09T12:33:40.394Z,32.66
2018-06-09T12:34:50.751Z,32.53
2018-06-09T12:36:01.011Z,32.56
2018-06-09T12:37:11.250Z,32.47
2018-06-09T12:38:21.492Z,32.33
2018-06-09T12:39:31.751Z,32.31
2018-06-09T12:40:41.988Z,32.25
2018-06-09T12:41:52.204Z,32.25
2018-06-09T12:43:02.382Z,31.99
2018-06-09T12:44:12.581Z,32.02
2018-06-09T12:45:22.782Z,31.92
2018-06-09T12:46:33.017Z,31.77
2018-06-09T12:47:43.221Z,31.58
2018-06-09T12:48:53.636Z,31.57
2018-06-09T12:50:03.845Z,31.5
2018-06-09T12:51:14.034Z,31.37
2018-06-09T12:52:24.262Z,31.31
2018-06-09T12:53:34.455Z,31.22
2018-06-09T12:54:44.726Z,31.07
2018-06-09T12:55:55.029Z,31.07
2018-06-09T12:57:05.209Z,30.93
2018-06-09T12:58:15.373Z,30.97
2018-06-09T12:59:25.575Z,30.9
2018-06-09T13:00:35.788Z,30.86
2018-06-09T13:01:45.976Z,30.83
2018-06-09T13:02:56.244Z,30.86
2018-06-09T13:04:06.448Z,30.9
2018-06-09T13:05:16.759Z,30.85
2018-06-09T13:06:26.952Z,30.83
2018-06-09T13:07:37.137Z,30.79
2018-06-09T13:08:47.374Z,30.76
2018-06-09T13:09:57.610Z,30.82
2018-06-09T13:11:07.827Z,30.7
2018-06-09T13:12:18.041Z,30.64
2018-06-09T13:13:28.271Z,30.61
2018-06-09T13:14:38.463Z,30.61
2018-06-09T13:15:48.688Z,30.57
2018-06-09T13:16:58.873Z,30.54
2018-06-09T13:18:09.092Z,30.44
2018-06-09T13:19:20.230Z,30.45
2018-06-09T13:20:30.583Z,30.32
2018-06-09T13:21:40.785Z,30.35
2018-06-09T13:22:50.973Z,30.29
2018-06-09T13:24:01.198Z,30.37
2018-06-09T13:25:11.392Z,30.29
2018-06-09T13:26:22.543Z,30.35
2018-06-09T13:27:32.751Z,30.35
2018-06-09T13:28:43.019Z,30.29
2018-06-09T13:29:53.195Z,30.26
2018-06-09T13:31:03.364Z,30.19
2018-06-09T13:32:13.533Z,30.19
2018-06-09T13:33:23.887Z,30.25
2018-06-09T13:34:34.081Z,30.2
2018-06-09T13:35:44.290Z,30.2
2018-06-09T13:36:54.526Z,30.29
2018-06-09T13:38:04.910Z,30.29
2018-06-09T13:39:15.075Z,30.25
2018-06-09T13:40:25.001Z,30.23
2018-06-09T13:41:34.987Z,30.17
2018-06-09T13:42:45.187Z,30.19
2018-06-09T13:43:55.361Z,30.19
2018-06-09T13:45:05.572Z,30.11
2018-06-09T13:46:15.785Z,30.11
2018-06-09T13:47:26.043Z,30.07
2018-06-09T13:48:36.291Z,30.07
2018-06-09T13:49:46.517Z,30.1
2018-06-09T13:50:56.711Z,30.1
2018-06-09T13:52:06.876Z,30.1
2018-06-09T13:53:17.120Z,30.1
2018-06-09T13:54:27.696Z,30.19
2018-06-09T13:55:37.968Z,30.14
2018-06-09T13:56:48.199Z,30.23
2018-06-09T13:57:58.530Z,30.3
2018-06-09T13:59:08.717Z,30.38
2018-06-09T14:00:19.020Z,30.33
2018-06-09T14:01:29.361Z,30.41
2018-06-09T14:02:39.446Z,30.44
2018-06-09T14:03:49.562Z,30.44
2018-06-09T14:04:59.805Z,30.57
2018-06-09T14:06:09.996Z,30.54
2018-06-09T14:07:20.258Z,30.56
2018-06-09T14:08:30.565Z,30.48
2018-06-09T14:09:40.795Z,30.56
2018-06-09T14:10:51.080Z,30.51
2018-06-09T14:12:01.640Z,30.59
2018-06-09T14:13:11.956Z,30.61
2018-06-09T14:14:22.222Z,30.63
2018-06-09T14:15:32.388Z,30.64
2018-06-09T14:16:42.645Z,30.61
2018-06-09T14:17:55.587Z,30.64
2018-06-09T14:19:05.916Z,30.72
2018-06-09T14:20:16.131Z,30.66
2018-06-09T14:21:26.071Z,30.72
2018-06-09T14:22:36.295Z,30.81
2018-06-09T14:23:46.487Z,30.74
2018-06-09T14:24:56.741Z,30.79
2018-06-09T14:26:06.918Z,30.74
2018-06-09T14:27:16.879Z,30.72
2018-06-09T14:28:27.146Z,30.63
2018-06-09T14:29:37.326Z,30.57
2018-06-09T14:30:47.247Z,30.45
2018-06-09T14:31:57.453Z,30.29
2018-06-09T14:33:07.624Z,30.33
2018-06-09T14:34:17.856Z,30.25
2018-06-09T14:35:28.093Z,30.22
2018-06-09T14:36:38.384Z,30.2
2018-06-09T14:37:48.548Z,30.12
2018-06-09T14:38:58.834Z,30.12
2018-06-09T14:40:09.028Z,30.11
2018-06-09T14:41:19.221Z,30.14
2018-06-09T14:42:29.416Z,30.12
2018-06-09T14:43:40.578Z,29.99
2018-06-09T14:44:50.911Z,29.97
2018-06-09T14:46:01.184Z,30.08
2018-06-09T14:47:11.351Z,30.07
2018-06-09T14:48:21.581Z,29.94
2018-06-09T14:49:31.399Z,30.11
2018-06-09T14:50:41.583Z,29.92
2018-06-09T14:51:51.854Z,29.92
2018-06-09T14:53:02.050Z,29.92
2018-06-09T14:54:12.277Z,29.91
2018-06-09T14:55:22.459Z,29.89
2018-06-09T14:56:32.688Z,29.99
2018-06-09T14:57:42.879Z,29.87
2018-06-09T14:58:52.801Z,29.77
2018-06-09T15:00:03.049Z,29.73
2018-06-09T15:01:13.349Z,29.7
2018-06-09T15:02:23.613Z,29.73
2018-06-09T15:03:33.870Z,29.73
2018-06-09T15:04:44.061Z,29.73
2018-06-09T15:05:54.175Z,29.77
2018-06-09T15:07:04.362Z,29.8